sensor_id;sensor_type;location;lat;lon;timestamp;P1;durP1;ratioP1;P2;durP2;ratioP2
11568;SDS011;5840;46.894;15.542;2024-02-28T00:05:42;14.00;;;12.83;;
11568;SDS011;5840;46.894;15.542;2024-02-28T00:08:10;13.77;;;12.67;;
11568;SDS011;5840;46.894;15.542;2024-02-28T00:10:37;14.23;;;13.10;;
11568;SDS011;5840;46.894;15.542;2024-02-28T00:13:03;14.47;;;13.30;;
11568;SDS011;5840;46.894;15.542;2024-02-28T00:15:29;14.10;;;12.93;;
11568;SDS011;5840;46.894;15.542;2024-02-28T00:17:55;13.77;;;12.47;;
11568;SDS011;5840;46.894;15.542;2024-02-28T00:20:23;13.83;;;12.73;;
11568;SDS011;5840;46.894;15.542;2024-02-28T00:22:53;13.83;;;12.77;;
11568;SDS011;5840;46.894;15.542;2024-02-28T00:32:48;13.77;;;12.67;;
11568;SDS011;5840;46.894;15.542;2024-02-28T00:35:14;14.67;;;13.37;;
11568;SDS011;5840;46.894;15.542;2024-02-28T00:37:41;14.23;;;12.93;;
11568;SDS011;5840;46.894;15.542;2024-02-28T00:40:08;14.27;;;12.97;;
11568;SDS011;5840;46.894;15.542;2024-02-28T00:42:35;14.80;;;13.50;;
11568;SDS011;5840;46.894;15.542;2024-02-28T00:45:01;14.30;;;13.20;;
11568;SDS011;5840;46.894;15.542;2024-02-28T00:47:28;13.80;;;12.80;;
11568;SDS011;5840;46.894;15.542;2024-02-28T00:49:55;14.53;;;13.43;;
11568;SDS011;5840;46.894;15.542;2024-02-28T00:59:45;13.33;;;12.23;;
11568;SDS011;5840;46.894;15.542;2024-02-28T01:02:11;12.93;;;11.90;;
11568;SDS011;5840;46.894;15.542;2024-02-28T01:04:39;11.70;;;10.73;;
11568;SDS011;5840;46.894;15.542;2024-02-28T01:07:05;13.60;;;12.37;;
11568;SDS011;5840;46.894;15.542;2024-02-28T01:09:31;14.37;;;13.13;;
11568;SDS011;5840;46.894;15.542;2024-02-28T01:11:58;14.60;;;13.40;;
11568;SDS011;5840;46.894;15.542;2024-02-28T01:14:24;14.70;;;13.50;;
11568;SDS011;5840;46.894;15.542;2024-02-28T01:16:59;15.53;;;14.27;;
11568;SDS011;5840;46.894;15.542;2024-02-28T01:24:29;15.83;;;14.43;;
11568;SDS011;5840;46.894;15.542;2024-02-28T01:26:55;15.57;;;14.27;;
11568;SDS011;5840;46.894;15.542;2024-02-28T01:29:21;16.50;;;15.10;;
11568;SDS011;5840;46.894;15.542;2024-02-28T01:31:48;16.10;;;14.87;;
11568;SDS011;5840;46.894;15.542;2024-02-28T01:34:14;16.57;;;15.07;;
11568;SDS011;5840;46.894;15.542;2024-02-28T01:36:40;15.60;;;14.40;;
11568;SDS011;5840;46.894;15.542;2024-02-28T01:39:06;15.87;;;14.67;;
11568;SDS011;5840;46.894;15.542;2024-02-28T01:41:34;15.57;;;14.33;;
11568;SDS011;5840;46.894;15.542;2024-02-28T01:51:28;15.50;;;14.30;;
11568;SDS011;5840;46.894;15.542;2024-02-28T01:53:55;17.30;;;15.73;;
11568;SDS011;5840;46.894;15.542;2024-02-28T01:56:22;16.17;;;14.77;;
11568;SDS011;5840;46.894;15.542;2024-02-28T01:58:50;16.50;;;15.07;;
11568;SDS011;5840;46.894;15.542;2024-02-28T02:01:17;17.17;;;15.77;;
11568;SDS011;5840;46.894;15.542;2024-02-28T02:03:44;16.10;;;14.60;;
11568;SDS011;5840;46.894;15.542;2024-02-28T02:06:10;15.97;;;14.57;;
11568;SDS011;5840;46.894;15.542;2024-02-28T02:08:37;16.50;;;15.10;;
11568;SDS011;5840;46.894;15.542;2024-02-28T02:16:07;15.63;;;14.37;;
11568;SDS011;5840;46.894;15.542;2024-02-28T02:18:34;14.87;;;13.77;;
11568;SDS011;5840;46.894;15.542;2024-02-28T02:21:02;16.97;;;15.57;;
11568;SDS011;5840;46.894;15.542;2024-02-28T02:23:31;16.10;;;14.90;;
11568;SDS011;5840;46.894;15.542;2024-02-28T02:25:57;16.00;;;14.70;;
11568;SDS011;5840;46.894;15.542;2024-02-28T02:28:23;14.80;;;13.50;;
11568;SDS011;5840;46.894;15.542;2024-02-28T02:30:49;15.47;;;14.27;;
11568;SDS011;5840;46.894;15.542;2024-02-28T02:33:15;15.43;;;14.23;;
11568;SDS011;5840;46.894;15.542;2024-02-28T02:43:10;16.17;;;14.97;;
11568;SDS011;5840;46.894;15.542;2024-02-28T02:45:37;16.60;;;15.10;;
11568;SDS011;5840;46.894;15.542;2024-02-28T02:48:03;15.03;;;13.83;;
11568;SDS011;5840;46.894;15.542;2024-02-28T02:50:30;15.50;;;14.20;;
11568;SDS011;5840;46.894;15.542;2024-02-28T02:52:56;14.50;;;13.37;;
11568;SDS011;5840;46.894;15.542;2024-02-28T02:55:22;15.53;;;14.33;;
11568;SDS011;5840;46.894;15.542;2024-02-28T02:57:48;14.97;;;13.80;;
11568;SDS011;5840;46.894;15.542;2024-02-28T03:00:15;14.00;;;12.90;;
11568;SDS011;5840;46.894;15.542;2024-02-28T03:07:45;14.73;;;13.60;;
11568;SDS011;5840;46.894;15.542;2024-02-28T03:10:11;14.27;;;13.07;;
11568;SDS011;5840;46.894;15.542;2024-02-28T03:12:37;15.30;;;14.10;;
11568;SDS011;5840;46.894;15.542;2024-02-28T03:15:05;15.40;;;14.07;;
11568;SDS011;5840;46.894;15.542;2024-02-28T03:17:32;15.17;;;13.87;;
11568;SDS011;5840;46.894;15.542;2024-02-28T03:19:58;14.83;;;13.63;;
11568;SDS011;5840;46.894;15.542;2024-02-28T03:22:24;15.67;;;14.10;;
11568;SDS011;5840;46.894;15.542;2024-02-28T03:24:51;15.00;;;13.73;;
11568;SDS011;5840;46.894;15.542;2024-02-28T03:34:41;15.60;;;14.30;;
11568;SDS011;5840;46.894;15.542;2024-02-28T03:37:07;15.23;;;14.03;;
11568;SDS011;5840;46.894;15.542;2024-02-28T03:39:34;14.50;;;13.40;;
11568;SDS011;5840;46.894;15.542;2024-02-28T03:42:00;15.93;;;14.63;;
11568;SDS011;5840;46.894;15.542;2024-02-28T03:44:26;15.87;;;14.50;;
11568;SDS011;5840;46.894;15.542;2024-02-28T03:46:52;14.33;;;13.07;;
11568;SDS011;5840;46.894;15.542;2024-02-28T03:49:18;14.93;;;13.73;;
11568;SDS011;5840;46.894;15.542;2024-02-28T03:51:45;15.37;;;14.03;;
11568;SDS011;5840;46.894;15.542;2024-02-28T04:01:40;14.77;;;13.67;;
11568;SDS011;5840;46.894;15.542;2024-02-28T04:04:06;14.97;;;13.60;;
11568;SDS011;5840;46.894;15.542;2024-02-28T04:06:33;14.33;;;13.23;;
11568;SDS011;5840;46.894;15.542;2024-02-28T04:08:59;14.47;;;13.37;;
11568;SDS011;5840;46.894;15.542;2024-02-28T04:11:26;14.13;;;13.00;;
11568;SDS011;5840;46.894;15.542;2024-02-28T04:13:52;14.63;;;13.43;;
11568;SDS011;5840;46.894;15.542;2024-02-28T04:16:18;15.13;;;13.80;;
11568;SDS011;5840;46.894;15.542;2024-02-28T04:18:45;15.07;;;13.77;;
11568;SDS011;5840;46.894;15.542;2024-02-28T04:28:40;12.57;;;11.50;;
11568;SDS011;5840;46.894;15.542;2024-02-28T04:31:07;13.30;;;11.63;;
11568;SDS011;5840;46.894;15.542;2024-02-28T04:33:34;32.80;;;16.43;;
11568;SDS011;5840;46.894;15.542;2024-02-28T04:36:01;15.27;;;14.00;;
11568;SDS011;5840;46.894;15.542;2024-02-28T04:38:27;14.10;;;13.00;;
11568;SDS011;5840;46.894;15.542;2024-02-28T04:40:53;14.33;;;13.13;;
11568;SDS011;5840;46.894;15.542;2024-02-28T04:43:19;14.37;;;13.20;;
11568;SDS011;5840;46.894;15.542;2024-02-28T04:45:46;14.60;;;13.47;;
11568;SDS011;5840;46.894;15.542;2024-02-28T04:53:15;13.03;;;11.83;;
11568;SDS011;5840;46.894;15.542;2024-02-28T04:55:41;12.80;;;11.70;;
11568;SDS011;5840;46.894;15.542;2024-02-28T04:58:08;13.40;;;12.30;;
11568;SDS011;5840;46.894;15.542;2024-02-28T05:00:34;12.93;;;11.93;;
11568;SDS011;5840;46.894;15.542;2024-02-28T05:03:00;27.77;;;14.10;;
11568;SDS011;5840;46.894;15.542;2024-02-28T05:05:26;13.20;;;11.90;;
11568;SDS011;5840;46.894;15.542;2024-02-28T05:07:52;13.47;;;12.30;;
11568;SDS011;5840;46.894;15.542;2024-02-28T05:10:19;12.53;;;11.53;;
11568;SDS011;5840;46.894;15.542;2024-02-28T05:20:15;11.97;;;11.10;;
11568;SDS011;5840;46.894;15.542;2024-02-28T05:22:41;12.87;;;11.87;;
11568;SDS011;5840;46.894;15.542;2024-02-28T05:25:08;13.23;;;12.20;;
11568;SDS011;5840;46.894;15.542;2024-02-28T05:27:34;12.20;;;11.30;;
11568;SDS011;5840;46.894;15.542;2024-02-28T05:30:00;12.53;;;11.53;;
11568;SDS011;5840;46.894;15.542;2024-02-28T05:32:27;12.63;;;11.67;;
11568;SDS011;5840;46.894;15.542;2024-02-28T05:34:53;14.70;;;13.53;;
11568;SDS011;5840;46.894;15.542;2024-02-28T05:37:20;13.23;;;12.23;;
11568;SDS011;5840;46.894;15.542;2024-02-28T05:47:15;64.50;;;13.20;;
11568;SDS011;5840;46.894;15.542;2024-02-28T05:49:41;41.67;;;12.53;;
11568;SDS011;5840;46.894;15.542;2024-02-28T05:52:07;11.13;;;10.43;;
11568;SDS011;5840;46.894;15.542;2024-02-28T05:54:34;13.10;;;12.10;;
11568;SDS011;5840;46.894;15.542;2024-02-28T05:57:01;52.17;;;14.00;;
11568;SDS011;5840;46.894;15.542;2024-02-28T05:59:27;109.77;;;18.07;;
11568;SDS011;5840;46.894;15.542;2024-02-28T06:01:53;19.47;;;12.30;;
11568;SDS011;5840;46.894;15.542;2024-02-28T06:04:20;13.13;;;12.07;;
11568;SDS011;5840;46.894;15.542;2024-02-28T06:14:14;10.83;;;10.03;;
11568;SDS011;5840;46.894;15.542;2024-02-28T06:16:41;11.03;;;10.10;;
11568;SDS011;5840;46.894;15.542;2024-02-28T06:19:07;10.20;;;9.50;;
11568;SDS011;5840;46.894;15.542;2024-02-28T06:21:33;11.40;;;10.50;;
11568;SDS011;5840;46.894;15.542;2024-02-28T06:23:59;11.70;;;10.80;;
11568;SDS011;5840;46.894;15.542;2024-02-28T06:26:26;12.40;;;11.40;;
11568;SDS011;5840;46.894;15.542;2024-02-28T06:28:52;11.17;;;10.27;;
11568;SDS011;5840;46.894;15.542;2024-02-28T06:31:19;11.63;;;10.83;;
11568;SDS011;5840;46.894;15.542;2024-02-28T06:41:14;11.63;;;10.73;;
11568;SDS011;5840;46.894;15.542;2024-02-28T06:43:41;11.63;;;10.83;;
11568;SDS011;5840;46.894;15.542;2024-02-28T06:46:07;12.10;;;11.20;;
11568;SDS011;5840;46.894;15.542;2024-02-28T06:48:34;12.13;;;11.13;;
11568;SDS011;5840;46.894;15.542;2024-02-28T06:51:00;11.30;;;10.40;;
11568;SDS011;5840;46.894;15.542;2024-02-28T06:53:27;11.23;;;10.30;;
11568;SDS011;5840;46.894;15.542;2024-02-28T06:55:53;11.33;;;10.33;;
11568;SDS011;5840;46.894;15.542;2024-02-28T06:58:20;11.20;;;10.40;;
11568;SDS011;5840;46.894;15.542;2024-02-28T07:05:48;11.10;;;10.20;;
11568;SDS011;5840;46.894;15.542;2024-02-28T07:08:15;11.03;;;10.13;;
11568;SDS011;5840;46.894;15.542;2024-02-28T07:10:41;12.07;;;11.17;;
11568;SDS011;5840;46.894;15.542;2024-02-28T07:13:08;11.80;;;10.97;;
11568;SDS011;5840;46.894;15.542;2024-02-28T07:15:35;14.23;;;13.13;;
11568;SDS011;5840;46.894;15.542;2024-02-28T07:18:01;14.77;;;13.67;;
11568;SDS011;5840;46.894;15.542;2024-02-28T07:20:27;12.13;;;11.23;;
11568;SDS011;5840;46.894;15.542;2024-02-28T07:22:55;11.97;;;10.93;;
11568;SDS011;5840;46.894;15.542;2024-02-28T07:30:24;14.93;;;13.83;;
11568;SDS011;5840;46.894;15.542;2024-02-28T07:32:50;14.10;;;13.10;;
11568;SDS011;5840;46.894;15.542;2024-02-28T07:35:17;13.73;;;12.63;;
11568;SDS011;5840;46.894;15.542;2024-02-28T07:37:44;13.57;;;12.53;;
11568;SDS011;5840;46.894;15.542;2024-02-28T07:40:10;13.60;;;12.57;;
11568;SDS011;5840;46.894;15.542;2024-02-28T07:42:36;12.83;;;11.90;;
11568;SDS011;5840;46.894;15.542;2024-02-28T07:45:03;13.17;;;12.27;;
11568;SDS011;5840;46.894;15.542;2024-02-28T07:50:07;13.20;;;12.20;;
11568;SDS011;5840;46.894;15.542;2024-02-28T07:52:34;12.50;;;11.50;;
11568;SDS011;5840;46.894;15.542;2024-02-28T07:55:02;17.03;;;15.67;;
11568;SDS011;5840;46.894;15.542;2024-02-28T07:57:29;15.27;;;14.17;;
11568;SDS011;5840;46.894;15.542;2024-02-28T07:59:56;13.67;;;12.47;;
11568;SDS011;5840;46.894;15.542;2024-02-28T08:02:22;14.60;;;13.40;;
11568;SDS011;5840;46.894;15.542;2024-02-28T08:04:49;15.27;;;14.07;;
11568;SDS011;5840;46.894;15.542;2024-02-28T08:07:16;13.93;;;12.93;;
11568;SDS011;5840;46.894;15.542;2024-02-28T08:14:46;14.87;;;13.77;;
11568;SDS011;5840;46.894;15.542;2024-02-28T08:17:12;14.23;;;13.13;;
11568;SDS011;5840;46.894;15.542;2024-02-28T08:19:40;15.20;;;13.83;;
11568;SDS011;5840;46.894;15.542;2024-02-28T08:22:07;14.40;;;13.23;;
11568;SDS011;5840;46.894;15.542;2024-02-28T08:24:33;15.13;;;13.93;;
11568;SDS011;5840;46.894;15.542;2024-02-28T08:26:59;13.97;;;12.97;;
11568;SDS011;5840;46.894;15.542;2024-02-28T08:29:26;14.47;;;13.33;;
11568;SDS011;5840;46.894;15.542;2024-02-28T08:31:53;14.63;;;13.43;;
11568;SDS011;5840;46.894;15.542;2024-02-28T08:39:22;9.67;;;8.83;;
11568;SDS011;5840;46.894;15.542;2024-02-28T08:41:48;13.03;;;12.10;;
11568;SDS011;5840;46.894;15.542;2024-02-28T08:44:15;13.83;;;12.73;;
11568;SDS011;5840;46.894;15.542;2024-02-28T08:46:41;11.13;;;10.03;;
11568;SDS011;5840;46.894;15.542;2024-02-28T08:49:07;12.60;;;11.70;;
11568;SDS011;5840;46.894;15.542;2024-02-28T08:51:34;12.03;;;11.03;;
11568;SDS011;5840;46.894;15.542;2024-02-28T08:54:00;12.97;;;11.93;;
11568;SDS011;5840;46.894;15.542;2024-02-28T08:56:27;12.47;;;11.40;;
11568;SDS011;5840;46.894;15.542;2024-02-28T09:06:22;10.47;;;9.77;;
11568;SDS011;5840;46.894;15.542;2024-02-28T09:08:48;10.73;;;9.83;;
11568;SDS011;5840;46.894;15.542;2024-02-28T09:11:14;12.13;;;11.13;;
11568;SDS011;5840;46.894;15.542;2024-02-28T09:13:40;10.00;;;9.30;;
11568;SDS011;5840;46.894;15.542;2024-02-28T09:16:07;9.53;;;8.83;;
11568;SDS011;5840;46.894;15.542;2024-02-28T09:18:33;10.80;;;10.00;;
11568;SDS011;5840;46.894;15.542;2024-02-28T09:20:59;10.40;;;9.63;;
11568;SDS011;5840;46.894;15.542;2024-02-28T09:23:26;11.07;;;10.27;;
11568;SDS011;5840;46.894;15.542;2024-02-28T09:30:56;11.13;;;10.23;;
11568;SDS011;5840;46.894;15.542;2024-02-28T09:33:22;12.97;;;12.00;;
11568;SDS011;5840;46.894;15.542;2024-02-28T09:35:49;11.73;;;10.83;;
11568;SDS011;5840;46.894;15.542;2024-02-28T09:38:15;10.87;;;10.17;;
11568;SDS011;5840;46.894;15.542;2024-02-28T09:40:42;11.30;;;10.40;;
11568;SDS011;5840;46.894;15.542;2024-02-28T09:43:12;10.70;;;9.90;;
11568;SDS011;5840;46.894;15.542;2024-02-28T09:45:43;9.97;;;9.27;;
11568;SDS011;5840;46.894;15.542;2024-02-28T09:48:10;10.23;;;9.43;;
11568;SDS011;5840;46.894;15.542;2024-02-28T09:55:41;10.23;;;9.43;;
11568;SDS011;5840;46.894;15.542;2024-02-28T09:58:08;9.70;;;8.80;;
11568;SDS011;5840;46.894;15.542;2024-02-28T10:00:36;9.67;;;8.97;;
11568;SDS011;5840;46.894;15.542;2024-02-28T10:03:03;10.43;;;9.63;;
11568;SDS011;5840;46.894;15.542;2024-02-28T10:05:32;9.63;;;8.83;;
11568;SDS011;5840;46.894;15.542;2024-02-28T10:10:26;8.90;;;8.20;;
11568;SDS011;5840;46.894;15.542;2024-02-28T10:12:54;9.10;;;8.33;;
11568;SDS011;5840;46.894;15.542;2024-02-28T10:20:24;8.20;;;7.50;;
11568;SDS011;5840;46.894;15.542;2024-02-28T10:22:51;8.30;;;7.50;;
11568;SDS011;5840;46.894;15.542;2024-02-28T10:25:18;8.43;;;7.83;;
11568;SDS011;5840;46.894;15.542;2024-02-28T10:27:46;7.97;;;7.33;;
11568;SDS011;5840;46.894;15.542;2024-02-28T10:30:12;7.43;;;6.87;;
11568;SDS011;5840;46.894;15.542;2024-02-28T10:32:47;7.20;;;6.60;;
11568;SDS011;5840;46.894;15.542;2024-02-28T10:35:14;8.23;;;7.53;;
11568;SDS011;5840;46.894;15.542;2024-02-28T10:37:44;8.10;;;7.30;;
11568;SDS011;5840;46.894;15.542;2024-02-28T10:47:35;7.63;;;7.03;;
11568;SDS011;5840;46.894;15.542;2024-02-28T10:50:03;7.13;;;6.60;;
11568;SDS011;5840;46.894;15.542;2024-02-28T10:52:29;6.50;;;5.90;;
11568;SDS011;5840;46.894;15.542;2024-02-28T10:54:59;6.43;;;5.93;;
11568;SDS011;5840;46.894;15.542;2024-02-28T10:57:27;6.47;;;6.00;;
11568;SDS011;5840;46.894;15.542;2024-02-28T10:59:54;6.17;;;5.60;;
11568;SDS011;5840;46.894;15.542;2024-02-28T11:02:22;8.20;;;6.60;;
11568;SDS011;5840;46.894;15.542;2024-02-28T11:04:51;6.07;;;5.57;;
11568;SDS011;5840;46.894;15.542;2024-02-28T11:12:26;6.10;;;5.60;;
11568;SDS011;5840;46.894;15.542;2024-02-28T11:14:57;6.90;;;5.80;;
11568;SDS011;5840;46.894;15.542;2024-02-28T11:17:25;7.40;;;6.70;;
11568;SDS011;5840;46.894;15.542;2024-02-28T11:19:52;6.37;;;5.87;;
11568;SDS011;5840;46.894;15.542;2024-02-28T11:22:20;6.27;;;5.67;;
11568;SDS011;5840;46.894;15.542;2024-02-28T11:24:46;6.57;;;5.97;;
11568;SDS011;5840;46.894;15.542;2024-02-28T11:27:13;7.27;;;5.80;;
11568;SDS011;5840;46.894;15.542;2024-02-28T11:29:41;6.00;;;5.47;;
11568;SDS011;5840;46.894;15.542;2024-02-28T11:37:14;6.73;;;6.13;;
11568;SDS011;5840;46.894;15.542;2024-02-28T11:39:46;5.20;;;4.90;;
11568;SDS011;5840;46.894;15.542;2024-02-28T11:42:13;5.70;;;5.20;;
11568;SDS011;5840;46.894;15.542;2024-02-28T11:44:40;5.70;;;5.20;;
11568;SDS011;5840;46.894;15.542;2024-02-28T11:47:08;5.97;;;5.43;;
11568;SDS011;5840;46.894;15.542;2024-02-28T11:49:35;5.97;;;5.47;;
11568;SDS011;5840;46.894;15.542;2024-02-28T11:52:02;8.10;;;6.13;;
11568;SDS011;5840;46.894;15.542;2024-02-28T11:54:30;6.00;;;5.50;;
11568;SDS011;5840;46.894;15.542;2024-02-28T12:02:01;6.43;;;5.87;;
11568;SDS011;5840;46.894;15.542;2024-02-28T12:04:36;10.73;;;5.80;;
11568;SDS011;5840;46.894;15.542;2024-02-28T12:07:02;7.17;;;5.73;;
11568;SDS011;5840;46.894;15.542;2024-02-28T12:09:29;5.60;;;5.10;;
11568;SDS011;5840;46.894;15.542;2024-02-28T12:11:56;5.63;;;5.13;;
11568;SDS011;5840;46.894;15.542;2024-02-28T12:14:26;5.73;;;5.10;;
11568;SDS011;5840;46.894;15.542;2024-02-28T12:16:52;6.03;;;5.50;;
11568;SDS011;5840;46.894;15.542;2024-02-28T12:19:20;5.43;;;4.93;;
11568;SDS011;5840;46.894;15.542;2024-02-28T12:26:49;6.27;;;5.07;;
11568;SDS011;5840;46.894;15.542;2024-02-28T12:29:15;5.47;;;4.97;;
11568;SDS011;5840;46.894;15.542;2024-02-28T12:31:42;6.13;;;5.53;;
11568;SDS011;5840;46.894;15.542;2024-02-28T12:34:08;6.37;;;5.50;;
11568;SDS011;5840;46.894;15.542;2024-02-28T12:36:34;8.20;;;5.53;;
11568;SDS011;5840;46.894;15.542;2024-02-28T12:39:00;5.80;;;5.30;;
11568;SDS011;5840;46.894;15.542;2024-02-28T12:41:26;5.20;;;4.80;;
11568;SDS011;5840;46.894;15.542;2024-02-28T12:43:54;6.17;;;5.63;;
11568;SDS011;5840;46.894;15.542;2024-02-28T12:53:49;5.90;;;5.17;;
11568;SDS011;5840;46.894;15.542;2024-02-28T12:56:15;5.47;;;4.97;;
11568;SDS011;5840;46.894;15.542;2024-02-28T12:58:41;5.80;;;5.17;;
11568;SDS011;5840;46.894;15.542;2024-02-28T13:01:08;5.90;;;5.17;;
11568;SDS011;5840;46.894;15.542;2024-02-28T13:03:34;5.30;;;4.77;;
11568;SDS011;5840;46.894;15.542;2024-02-28T13:06:00;7.33;;;5.40;;
11568;SDS011;5840;46.894;15.542;2024-02-28T13:08:26;5.97;;;4.33;;
11568;SDS011;5840;46.894;15.542;2024-02-28T13:10:53;4.97;;;4.47;;
11568;SDS011;5840;46.894;15.542;2024-02-28T13:18:23;5.43;;;3.80;;
11568;SDS011;5840;46.894;15.542;2024-02-28T13:20:50;6.20;;;3.80;;
11568;SDS011;5840;46.894;15.542;2024-02-28T13:23:17;4.97;;;3.57;;
11568;SDS011;5840;46.894;15.542;2024-02-28T13:25:43;4.97;;;3.70;;
11568;SDS011;5840;46.894;15.542;2024-02-28T13:28:09;4.67;;;3.60;;
11568;SDS011;5840;46.894;15.542;2024-02-28T13:30:36;6.03;;;3.80;;
11568;SDS011;5840;46.894;15.542;2024-02-28T13:33:02;4.93;;;4.10;;
11568;SDS011;5840;46.894;15.542;2024-02-28T13:35:30;5.60;;;4.13;;
11568;SDS011;5840;46.894;15.542;2024-02-28T13:45:20;6.00;;;3.80;;
11568;SDS011;5840;46.894;15.542;2024-02-28T13:47:47;8.77;;;3.50;;
11568;SDS011;5840;46.894;15.542;2024-02-28T13:50:13;11.07;;;4.40;;
11568;SDS011;5840;46.894;15.542;2024-02-28T13:52:39;7.27;;;4.10;;
11568;SDS011;5840;46.894;15.542;2024-02-28T13:55:06;5.63;;;4.20;;
11568;SDS011;5840;46.894;15.542;2024-02-28T13:57:34;4.83;;;3.80;;
11568;SDS011;5840;46.894;15.542;2024-02-28T14:00:00;6.93;;;4.13;;
11568;SDS011;5840;46.894;15.542;2024-02-28T14:05:05;9.60;;;3.80;;
11568;SDS011;5840;46.894;15.542;2024-02-28T14:07:32;3.93;;;3.53;;
11568;SDS011;5840;46.894;15.542;2024-02-28T14:10:01;4.03;;;3.63;;
11568;SDS011;5840;46.894;15.542;2024-02-28T14:12:28;4.50;;;3.90;;
11568;SDS011;5840;46.894;15.542;2024-02-28T14:14:54;5.73;;;3.67;;
11568;SDS011;5840;46.894;15.542;2024-02-28T14:17:21;6.53;;;4.27;;
11568;SDS011;5840;46.894;15.542;2024-02-28T14:19:47;6.53;;;3.70;;
11568;SDS011;5840;46.894;15.542;2024-02-28T14:22:14;4.60;;;3.43;;
11568;SDS011;5840;46.894;15.542;2024-02-28T14:32:09;6.33;;;3.87;;
11568;SDS011;5840;46.894;15.542;2024-02-28T14:34:35;10.33;;;4.17;;
11568;SDS011;5840;46.894;15.542;2024-02-28T14:37:01;7.13;;;3.63;;
11568;SDS011;5840;46.894;15.542;2024-02-28T14:39:29;6.60;;;3.73;;
11568;SDS011;5840;46.894;15.542;2024-02-28T14:41:55;7.40;;;4.20;;
11568;SDS011;5840;46.894;15.542;2024-02-28T14:44:22;6.90;;;3.53;;
11568;SDS011;5840;46.894;15.542;2024-02-28T14:46:48;7.13;;;4.03;;
11568;SDS011;5840;46.894;15.542;2024-02-28T14:49:15;7.17;;;3.73;;
11568;SDS011;5840;46.894;15.542;2024-02-28T14:59:10;10.03;;;3.90;;
11568;SDS011;5840;46.894;15.542;2024-02-28T15:01:37;4.27;;;3.70;;
11568;SDS011;5840;46.894;15.542;2024-02-28T15:04:03;5.30;;;4.27;;
11568;SDS011;5840;46.894;15.542;2024-02-28T15:06:29;6.60;;;3.57;;
11568;SDS011;5840;46.894;15.542;2024-02-28T15:08:56;7.13;;;3.77;;
11568;SDS011;5840;46.894;15.542;2024-02-28T15:11:22;6.13;;;3.80;;
11568;SDS011;5840;46.894;15.542;2024-02-28T15:13:49;5.27;;;3.70;;
11568;SDS011;5840;46.894;15.542;2024-02-28T15:16:16;4.57;;;4.00;;
11568;SDS011;5840;46.894;15.542;2024-02-28T15:26:06;4.57;;;3.90;;
11568;SDS011;5840;46.894;15.542;2024-02-28T15:28:32;4.43;;;3.53;;
11568;SDS011;5840;46.894;15.542;2024-02-28T15:30:58;4.30;;;3.90;;
11568;SDS011;5840;46.894;15.542;2024-02-28T15:33:25;4.37;;;3.80;;
11568;SDS011;5840;46.894;15.542;2024-02-28T15:35:51;4.10;;;3.70;;
11568;SDS011;5840;46.894;15.542;2024-02-28T15:38:17;7.70;;;4.10;;
11568;SDS011;5840;46.894;15.542;2024-02-28T15:40:44;4.07;;;3.50;;
11568;SDS011;5840;46.894;15.542;2024-02-28T15:43:10;6.87;;;3.73;;
11568;SDS011;5840;46.894;15.542;2024-02-28T15:50:40;6.07;;;3.80;;
11568;SDS011;5840;46.894;15.542;2024-02-28T15:53:06;6.27;;;4.10;;
11568;SDS011;5840;46.894;15.542;2024-02-28T15:55:32;4.60;;;4.20;;
11568;SDS011;5840;46.894;15.542;2024-02-28T15:57:59;6.13;;;3.90;;
11568;SDS011;5840;46.894;15.542;2024-02-28T16:00:25;5.00;;;3.70;;
11568;SDS011;5840;46.894;15.542;2024-02-28T16:02:51;5.63;;;4.20;;
11568;SDS011;5840;46.894;15.542;2024-02-28T16:05:17;4.83;;;4.07;;
11568;SDS011;5840;46.894;15.542;2024-02-28T16:07:45;7.00;;;4.20;;
11568;SDS011;5840;46.894;15.542;2024-02-28T16:17:35;6.17;;;4.27;;
11568;SDS011;5840;46.894;15.542;2024-02-28T16:20:02;4.30;;;3.90;;
11568;SDS011;5840;46.894;15.542;2024-02-28T16:22:28;5.67;;;4.40;;
11568;SDS011;5840;46.894;15.542;2024-02-28T16:24:55;5.07;;;3.87;;
11568;SDS011;5840;46.894;15.542;2024-02-28T16:27:21;6.63;;;4.23;;
11568;SDS011;5840;46.894;15.542;2024-02-28T16:29:47;5.00;;;3.80;;
11568;SDS011;5840;46.894;15.542;2024-02-28T16:32:13;6.00;;;4.00;;
11568;SDS011;5840;46.894;15.542;2024-02-28T16:34:40;4.43;;;3.87;;
11568;SDS011;5840;46.894;15.542;2024-02-28T16:42:10;5.57;;;3.97;;
11568;SDS011;5840;46.894;15.542;2024-02-28T16:44:36;7.47;;;4.60;;
11568;SDS011;5840;46.894;15.542;2024-02-28T16:47:03;4.57;;;4.17;;
11568;SDS011;5840;46.894;15.542;2024-02-28T16:49:29;5.87;;;4.70;;
11568;SDS011;5840;46.894;15.542;2024-02-28T16:51:55;8.10;;;4.67;;
11568;SDS011;5840;46.894;15.542;2024-02-28T16:54:21;6.23;;;4.33;;
11568;SDS011;5840;46.894;15.542;2024-02-28T16:56:48;7.20;;;3.93;;
11568;SDS011;5840;46.894;15.542;2024-02-28T16:59:15;5.87;;;4.03;;
11568;SDS011;5840;46.894;15.542;2024-02-28T17:09:09;6.70;;;4.00;;
11568;SDS011;5840;46.894;15.542;2024-02-28T17:11:36;7.07;;;4.33;;
11568;SDS011;5840;46.894;15.542;2024-02-28T17:14:02;7.30;;;4.20;;
11568;SDS011;5840;46.894;15.542;2024-02-28T17:16:28;4.67;;;3.90;;
11568;SDS011;5840;46.894;15.542;2024-02-28T17:18:55;6.77;;;4.23;;
11568;SDS011;5840;46.894;15.542;2024-02-28T17:21:21;6.90;;;4.60;;
11568;SDS011;5840;46.894;15.542;2024-02-28T17:23:47;8.87;;;5.03;;
11568;SDS011;5840;46.894;15.542;2024-02-28T17:26:14;6.57;;;5.40;;
11568;SDS011;5840;46.894;15.542;2024-02-28T17:33:44;7.67;;;5.77;;
11568;SDS011;5840;46.894;15.542;2024-02-28T17:36:12;8.00;;;6.27;;
11568;SDS011;5840;46.894;15.542;2024-02-28T17:38:38;7.10;;;6.40;;
11568;SDS011;5840;46.894;15.542;2024-02-28T17:41:04;12.00;;;7.67;;
11568;SDS011;5840;46.894;15.542;2024-02-28T17:43:33;8.60;;;6.43;;
11568;SDS011;5840;46.894;15.542;2024-02-28T17:46:00;12.37;;;6.87;;
11568;SDS011;5840;46.894;15.542;2024-02-28T17:48:26;8.00;;;6.13;;
11568;SDS011;5840;46.894;15.542;2024-02-28T17:50:54;7.50;;;5.50;;
11568;SDS011;5840;46.894;15.542;2024-02-28T18:00:50;8.40;;;5.83;;
11568;SDS011;5840;46.894;15.542;2024-02-28T18:03:21;9.43;;;6.50;;
11568;SDS011;5840;46.894;15.542;2024-02-28T18:05:48;8.10;;;7.30;;
11568;SDS011;5840;46.894;15.542;2024-02-28T18:08:14;10.17;;;7.40;;
11568;SDS011;5840;46.894;15.542;2024-02-28T18:10:41;8.70;;;7.27;;
11568;SDS011;5840;46.894;15.542;2024-02-28T18:15:35;9.50;;;8.17;;
11568;SDS011;5840;46.894;15.542;2024-02-28T18:18:03;8.23;;;7.43;;
11568;SDS011;5840;46.894;15.542;2024-02-28T18:25:32;8.33;;;7.50;;
11568;SDS011;5840;46.894;15.542;2024-02-28T18:27:58;10.70;;;8.00;;
11568;SDS011;5840;46.894;15.542;2024-02-28T18:30:25;10.10;;;8.50;;
11568;SDS011;5840;46.894;15.542;2024-02-28T18:32:52;10.40;;;7.93;;
11568;SDS011;5840;46.894;15.542;2024-02-28T18:35:19;8.70;;;7.87;;
11568;SDS011;5840;46.894;15.542;2024-02-28T18:37:46;7.87;;;6.87;;
11568;SDS011;5840;46.894;15.542;2024-02-28T18:40:12;8.80;;;7.40;;
11568;SDS011;5840;46.894;15.542;2024-02-28T18:42:42;10.87;;;7.27;;
11568;SDS011;5840;46.894;15.542;2024-02-28T18:50:12;8.80;;;6.47;;
11568;SDS011;5840;46.894;15.542;2024-02-28T18:52:39;10.17;;;6.80;;
11568;SDS011;5840;46.894;15.542;2024-02-28T18:55:05;9.10;;;7.40;;
11568;SDS011;5840;46.894;15.542;2024-02-28T18:57:32;8.87;;;7.97;;
11568;SDS011;5840;46.894;15.542;2024-02-28T18:59:59;8.50;;;7.60;;
11568;SDS011;5840;46.894;15.542;2024-02-28T19:02:25;8.90;;;7.50;;
11568;SDS011;5840;46.894;15.542;2024-02-28T19:04:53;11.30;;;8.80;;
11568;SDS011;5840;46.894;15.542;2024-02-28T19:07:21;12.73;;;8.47;;